sensor_id;sensor_type;location;lat;lon;timestamp;P1;durP1;ratioP1;P2;durP2;ratioP2
13171;SDS011;6651;53.200;10.432;2023-08-06T00:00:55;6.53;;;4.70;;
13171;SDS011;6651;53.200;10.432;2023-08-06T00:03:21;5.28;;;4.50;;
13171;SDS011;6651;53.200;10.432;2023-08-06T00:05:47;6.68;;;4.60;;
13171;SDS011;6651;53.200;10.432;2023-08-06T00:08:12;5.70;;;4.60;;
13171;SDS011;6651;53.200;10.432;2023-08-06T00:10:40;5.45;;;4.53;;
13171;SDS011;6651;53.200;10.432;2023-08-06T00:13:06;6.85;;;4.90;;
13171;SDS011;6651;53.200;10.432;2023-08-06T00:15:32;4.93;;;4.30;;
13171;SDS011;6651;53.200;10.432;2023-08-06T00:17:58;6.03;;;4.32;;
13171;SDS011;6651;53.200;10.432;2023-08-06T00:20:23;4.72;;;3.92;;
13171;SDS011;6651;53.200;10.432;2023-08-06T00:22:49;5.15;;;4.03;;
13171;SDS011;6651;53.200;10.432;2023-08-06T00:25:14;7.05;;;4.43;;
13171;SDS011;6651;53.200;10.432;2023-08-06T00:27:40;8.98;;;4.30;;
13171;SDS011;6651;53.200;10.432;2023-08-06T00:30:06;5.22;;;4.40;;
13171;SDS011;6651;53.200;10.432;2023-08-06T00:32:32;5.57;;;4.80;;
13171;SDS011;6651;53.200;10.432;2023-08-06T00:34:57;5.55;;;4.60;;
13171;SDS011;6651;53.200;10.432;2023-08-06T00:37:23;5.70;;;4.32;;
13171;SDS011;6651;53.200;10.432;2023-08-06T00:39:49;4.78;;;3.67;;
13171;SDS011;6651;53.200;10.432;2023-08-06T00:42:14;6.00;;;4.55;;
13171;SDS011;6651;53.200;10.432;2023-08-06T00:44:42;5.78;;;4.35;;
13171;SDS011;6651;53.200;10.432;2023-08-06T00:47:07;6.38;;;4.90;;
13171;SDS011;6651;53.200;10.432;2023-08-06T00:49:34;6.30;;;4.20;;
13171;SDS011;6651;53.200;10.432;2023-08-06T00:52:01;4.70;;;3.95;;
13171;SDS011;6651;53.200;10.432;2023-08-06T00:54:29;6.60;;;4.22;;
13171;SDS011;6651;53.200;10.432;2023-08-06T00:56:56;4.72;;;4.18;;
13171;SDS011;6651;53.200;10.432;2023-08-06T00:59:22;4.93;;;4.15;;
13171;SDS011;6651;53.200;10.432;2023-08-06T01:01:48;6.38;;;4.22;;
13171;SDS011;6651;53.200;10.432;2023-08-06T01:04:15;5.45;;;4.40;;
13171;SDS011;6651;53.200;10.432;2023-08-06T01:06:45;6.18;;;4.60;;
13171;SDS011;6651;53.200;10.432;2023-08-06T01:09:35;4.88;;;4.20;;
13171;SDS011;6651;53.200;10.432;2023-08-06T01:12:30;6.82;;;4.50;;
13171;SDS011;6651;53.200;10.432;2023-08-06T01:15:11;4.68;;;3.97;;
13171;SDS011;6651;53.200;10.432;2023-08-06T01:17:44;5.55;;;4.30;;
13171;SDS011;6651;53.200;10.432;2023-08-06T01:20:10;5.00;;;4.50;;
13171;SDS011;6651;53.200;10.432;2023-08-06T01:22:36;4.68;;;4.00;;
13171;SDS011;6651;53.200;10.432;2023-08-06T01:25:02;5.00;;;4.18;;
13171;SDS011;6651;53.200;10.432;2023-08-06T01:27:49;5.93;;;4.80;;
13171;SDS011;6651;53.200;10.432;2023-08-06T01:30:22;7.47;;;5.20;;
13171;SDS011;6651;53.200;10.432;2023-08-06T01:32:53;7.30;;;5.43;;
13171;SDS011;6651;53.200;10.432;2023-08-06T01:35:24;6.05;;;5.35;;
13171;SDS011;6651;53.200;10.432;2023-08-06T01:37:51;5.65;;;4.82;;
13171;SDS011;6651;53.200;10.432;2023-08-06T01:40:17;6.25;;;4.75;;
13171;SDS011;6651;53.200;10.432;2023-08-06T01:42:43;5.70;;;4.50;;
13171;SDS011;6651;53.200;10.432;2023-08-06T01:45:09;5.28;;;4.53;;
13171;SDS011;6651;53.200;10.432;2023-08-06T01:47:35;5.65;;;5.05;;
13171;SDS011;6651;53.200;10.432;2023-08-06T01:50:01;7.22;;;5.13;;
13171;SDS011;6651;53.200;10.432;2023-08-06T01:52:27;6.07;;;5.18;;
13171;SDS011;6651;53.200;10.432;2023-08-06T01:54:53;5.97;;;5.03;;
13171;SDS011;6651;53.200;10.432;2023-08-06T01:57:19;5.95;;;5.03;;
13171;SDS011;6651;53.200;10.432;2023-08-06T01:59:45;8.77;;;5.63;;
13171;SDS011;6651;53.200;10.432;2023-08-06T02:02:11;8.02;;;6.00;;
13171;SDS011;6651;53.200;10.432;2023-08-06T02:04:37;6.40;;;5.40;;
13171;SDS011;6651;53.200;10.432;2023-08-06T02:07:02;6.40;;;5.75;;
13171;SDS011;6651;53.200;10.432;2023-08-06T02:09:28;6.05;;;5.13;;
13171;SDS011;6651;53.200;10.432;2023-08-06T02:11:54;5.97;;;5.38;;
13171;SDS011;6651;53.200;10.432;2023-08-06T02:14:20;5.95;;;4.80;;
13171;SDS011;6651;53.200;10.432;2023-08-06T02:16:46;5.93;;;4.90;;
13171;SDS011;6651;53.200;10.432;2023-08-06T02:19:11;5.40;;;4.78;;
13171;SDS011;6651;53.200;10.432;2023-08-06T02:21:37;6.13;;;5.18;;
13171;SDS011;6651;53.200;10.432;2023-08-06T02:24:03;6.53;;;5.15;;
13171;SDS011;6651;53.200;10.432;2023-08-06T02:26:28;5.80;;;4.55;;
13171;SDS011;6651;53.200;10.432;2023-08-06T02:28:54;4.95;;;4.45;;
13171;SDS011;6651;53.200;10.432;2023-08-06T02:31:20;5.47;;;4.85;;
13171;SDS011;6651;53.200;10.432;2023-08-06T02:33:45;5.93;;;5.15;;
13171;SDS011;6651;53.200;10.432;2023-08-06T02:36:11;6.07;;;5.00;;
13171;SDS011;6651;53.200;10.432;2023-08-06T02:38:37;6.22;;;4.90;;
13171;SDS011;6651;53.200;10.432;2023-08-06T02:41:02;7.18;;;5.05;;
13171;SDS011;6651;53.200;10.432;2023-08-06T02:43:28;5.13;;;4.43;;
13171;SDS011;6651;53.200;10.432;2023-08-06T02:45:58;5.05;;;4.55;;
13171;SDS011;6651;53.200;10.432;2023-08-06T02:48:26;4.90;;;4.30;;
13171;SDS011;6651;53.200;10.432;2023-08-06T02:50:56;5.43;;;4.45;;
13171;SDS011;6651;53.200;10.432;2023-08-06T02:53:23;6.45;;;4.57;;
13171;SDS011;6651;53.200;10.432;2023-08-06T02:55:48;4.72;;;3.97;;
13171;SDS011;6651;53.200;10.432;2023-08-06T02:58:14;5.25;;;4.32;;
13171;SDS011;6651;53.200;10.432;2023-08-06T03:00:40;5.28;;;4.35;;
13171;SDS011;6651;53.200;10.432;2023-08-06T03:03:07;5.47;;;3.85;;
13171;SDS011;6651;53.200;10.432;2023-08-06T03:05:32;6.13;;;4.50;;
13171;SDS011;6651;53.200;10.432;2023-08-06T03:07:58;4.95;;;4.45;;
13171;SDS011;6651;53.200;10.432;2023-08-06T03:10:24;5.80;;;4.80;;
13171;SDS011;6651;53.200;10.432;2023-08-06T03:12:49;5.10;;;4.60;;
13171;SDS011;6651;53.200;10.432;2023-08-06T03:15:15;4.90;;;4.45;;
13171;SDS011;6651;53.200;10.432;2023-08-06T03:17:41;6.45;;;5.13;;
13171;SDS011;6651;53.200;10.432;2023-08-06T03:20:06;5.88;;;5.10;;
13171;SDS011;6651;53.200;10.432;2023-08-06T03:22:32;6.88;;;5.72;;
13171;SDS011;6651;53.200;10.432;2023-08-06T03:24:58;7.65;;;5.40;;
13171;SDS011;6651;53.200;10.432;2023-08-06T03:27:24;6.22;;;4.82;;
13171;SDS011;6651;53.200;10.432;2023-08-06T03:29:49;6.28;;;5.00;;
13171;SDS011;6651;53.200;10.432;2023-08-06T03:32:15;5.35;;;4.57;;
13171;SDS011;6651;53.200;10.432;2023-08-06T03:34:41;6.05;;;4.55;;
13171;SDS011;6651;53.200;10.432;2023-08-06T03:37:06;4.85;;;4.35;;
13171;SDS011;6651;53.200;10.432;2023-08-06T03:39:32;5.30;;;4.70;;
13171;SDS011;6651;53.200;10.432;2023-08-06T03:41:58;6.43;;;4.70;;
13171;SDS011;6651;53.200;10.432;2023-08-06T03:44:24;5.32;;;4.22;;
13171;SDS011;6651;53.200;10.432;2023-08-06T03:46:49;4.82;;;4.32;;
13171;SDS011;6651;53.200;10.432;2023-08-06T03:49:15;4.50;;;4.03;;
13171;SDS011;6651;53.200;10.432;2023-08-06T03:51:41;4.88;;;4.38;;
13171;SDS011;6651;53.200;10.432;2023-08-06T03:54:06;6.38;;;4.97;;
13171;SDS011;6651;53.200;10.432;2023-08-06T03:56:32;5.82;;;4.28;;
13171;SDS011;6651;53.200;10.432;2023-08-06T03:58:57;6.50;;;4.70;;
13171;SDS011;6651;53.200;10.432;2023-08-06T04:01:23;5.68;;;4.20;;
13171;SDS011;6651;53.200;10.432;2023-08-06T04:03:49;6.65;;;4.60;;
13171;SDS011;6651;53.200;10.432;2023-08-06T04:06:14;4.18;;;3.80;;
13171;SDS011;6651;53.200;10.432;2023-08-06T04:08:40;6.00;;;4.50;;
13171;SDS011;6651;53.200;10.432;2023-08-06T04:11:06;6.40;;;4.07;;
13171;SDS011;6651;53.200;10.432;2023-08-06T04:13:31;4.38;;;3.80;;
13171;SDS011;6651;53.200;10.432;2023-08-06T04:16:00;5.93;;;4.13;;
13171;SDS011;6651;53.200;10.432;2023-08-06T04:18:27;4.63;;;4.22;;
13171;SDS011;6651;53.200;10.432;2023-08-06T04:20:53;5.60;;;4.63;;
13171;SDS011;6651;53.200;10.432;2023-08-06T04:23:20;5.38;;;3.95;;
13171;SDS011;6651;53.200;10.432;2023-08-06T04:25:49;4.93;;;4.18;;
13171;SDS011;6651;53.200;10.432;2023-08-06T04:28:14;6.18;;;4.30;;
13171;SDS011;6651;53.200;10.432;2023-08-06T04:30:40;4.82;;;4.18;;
13171;SDS011;6651;53.200;10.432;2023-08-06T04:33:06;4.78;;;4.03;;
13171;SDS011;6651;53.200;10.432;2023-08-06T04:35:31;4.43;;;3.92;;
13171;SDS011;6651;53.200;10.432;2023-08-06T04:37:57;4.80;;;3.85;;
13171;SDS011;6651;53.200;10.432;2023-08-06T04:40:23;5.35;;;4.20;;
13171;SDS011;6651;53.200;10.432;2023-08-06T04:42:48;5.10;;;4.28;;
13171;SDS011;6651;53.200;10.432;2023-08-06T04:45:14;5.25;;;4.40;;
13171;SDS011;6651;53.200;10.432;2023-08-06T04:47:39;4.93;;;4.43;;
13171;SDS011;6651;53.200;10.432;2023-08-06T04:50:05;5.80;;;4.22;;
13171;SDS011;6651;53.200;10.432;2023-08-06T04:52:31;6.63;;;4.38;;
13171;SDS011;6651;53.200;10.432;2023-08-06T04:54:57;4.43;;;4.03;;
13171;SDS011;6651;53.200;10.432;2023-08-06T04:57:23;5.18;;;4.28;;
13171;SDS011;6651;53.200;10.432;2023-08-06T04:59:49;4.50;;;3.92;;
13171;SDS011;6651;53.200;10.432;2023-08-06T05:02:14;6.18;;;3.95;;
13171;SDS011;6651;53.200;10.432;2023-08-06T05:04:40;5.43;;;3.95;;
13171;SDS011;6651;53.200;10.432;2023-08-06T05:07:06;5.13;;;4.25;;
13171;SDS011;6651;53.200;10.432;2023-08-06T05:09:31;7.55;;;4.60;;
13171;SDS011;6651;53.200;10.432;2023-08-06T05:11:57;6.55;;;4.60;;
13171;SDS011;6651;53.200;10.432;2023-08-06T05:14:25;7.03;;;4.60;;
13171;SDS011;6651;53.200;10.432;2023-08-06T05:16:51;4.90;;;4.10;;
13171;SDS011;6651;53.200;10.432;2023-08-06T05:19:17;5.50;;;4.57;;
13171;SDS011;6651;53.200;10.432;2023-08-06T05:21:42;4.78;;;4.15;;
13171;SDS011;6651;53.200;10.432;2023-08-06T05:24:08;5.93;;;4.68;;
13171;SDS011;6651;53.200;10.432;2023-08-06T05:26:33;8.20;;;4.75;;
13171;SDS011;6651;53.200;10.432;2023-08-06T05:29:00;5.15;;;4.20;;
13171;SDS011;6651;53.200;10.432;2023-08-06T05:31:26;5.32;;;4.07;;
13171;SDS011;6651;53.200;10.432;2023-08-06T05:33:53;6.40;;;4.10;;
13171;SDS011;6651;53.200;10.432;2023-08-06T05:36:19;5.20;;;4.60;;
13171;SDS011;6651;53.200;10.432;2023-08-06T05:38:46;5.82;;;4.40;;
13171;SDS011;6651;53.200;10.432;2023-08-06T05:41:11;7.85;;;4.60;;
13171;SDS011;6651;53.200;10.432;2023-08-06T05:43:37;6.55;;;4.38;;
13171;SDS011;6651;53.200;10.432;2023-08-06T05:46:03;6.78;;;4.90;;
13171;SDS011;6651;53.200;10.432;2023-08-06T05:48:29;5.50;;;4.50;;
13171;SDS011;6651;53.200;10.432;2023-08-06T05:50:55;7.53;;;4.68;;
13171;SDS011;6651;53.200;10.432;2023-08-06T05:53:20;5.43;;;4.60;;
13171;SDS011;6651;53.200;10.432;2023-08-06T05:55:47;5.00;;;4.53;;
13171;SDS011;6651;53.200;10.432;2023-08-06T05:58:13;5.03;;;4.35;;
13171;SDS011;6651;53.200;10.432;2023-08-06T06:00:38;5.07;;;4.35;;
13171;SDS011;6651;53.200;10.432;2023-08-06T06:03:04;5.47;;;4.50;;
13171;SDS011;6651;53.200;10.432;2023-08-06T06:05:29;5.85;;;4.72;;
13171;SDS011;6651;53.200;10.432;2023-08-06T06:07:55;6.60;;;4.68;;
13171;SDS011;6651;53.200;10.432;2023-08-06T06:10:21;6.43;;;4.32;;
13171;SDS011;6651;53.200;10.432;2023-08-06T06:12:46;6.05;;;4.60;;
13171;SDS011;6651;53.200;10.432;2023-08-06T06:15:12;4.97;;;4.45;;
13171;SDS011;6651;53.200;10.432;2023-08-06T06:17:38;6.63;;;5.10;;
13171;SDS011;6651;53.200;10.432;2023-08-06T06:20:03;6.50;;;5.03;;
13171;SDS011;6651;53.200;10.432;2023-08-06T06:22:30;6.70;;;5.00;;
13171;SDS011;6651;53.200;10.432;2023-08-06T06:24:55;7.10;;;4.70;;
13171;SDS011;6651;53.200;10.432;2023-08-06T06:27:21;5.15;;;4.57;;
13171;SDS011;6651;53.200;10.432;2023-08-06T06:29:47;5.82;;;4.80;;
13171;SDS011;6651;53.200;10.432;2023-08-06T06:32:12;5.38;;;4.88;;
13171;SDS011;6651;53.200;10.432;2023-08-06T06:34:38;8.68;;;4.70;;
13171;SDS011;6651;53.200;10.432;2023-08-06T06:37:04;5.80;;;4.80;;
13171;SDS011;6651;53.200;10.432;2023-08-06T06:39:30;7.68;;;5.15;;
13171;SDS011;6651;53.200;10.432;2023-08-06T06:41:55;6.25;;;5.28;;
13171;SDS011;6651;53.200;10.432;2023-08-06T06:44:21;7.35;;;5.60;;
13171;SDS011;6651;53.200;10.432;2023-08-06T06:46:47;7.22;;;5.72;;
13171;SDS011;6651;53.200;10.432;2023-08-06T06:49:12;6.53;;;5.28;;
13171;SDS011;6651;53.200;10.432;2023-08-06T06:51:38;6.60;;;5.05;;
13171;SDS011;6651;53.200;10.432;2023-08-06T06:54:04;5.90;;;4.75;;
13171;SDS011;6651;53.200;10.432;2023-08-06T06:56:29;5.30;;;4.63;;
13171;SDS011;6651;53.200;10.432;2023-08-06T06:58:55;7.38;;;5.03;;
13171;SDS011;6651;53.200;10.432;2023-08-06T07:01:21;8.05;;;5.15;;
13171;SDS011;6651;53.200;10.432;2023-08-06T07:03:46;6.20;;;4.70;;
13171;SDS011;6651;53.200;10.432;2023-08-06T07:06:12;9.02;;;5.45;;
13171;SDS011;6651;53.200;10.432;2023-08-06T07:08:38;7.55;;;5.13;;
13171;SDS011;6651;53.200;10.432;2023-08-06T07:11:04;5.85;;;4.70;;
13171;SDS011;6651;53.200;10.432;2023-08-06T07:13:31;5.25;;;4.55;;
13171;SDS011;6651;53.200;10.432;2023-08-06T07:15:58;8.18;;;5.13;;
13171;SDS011;6651;53.200;10.432;2023-08-06T07:18:24;8.23;;;5.20;;
13171;SDS011;6651;53.200;10.432;2023-08-06T07:20:50;5.88;;;5.00;;
13171;SDS011;6651;53.200;10.432;2023-08-06T07:23:17;6.82;;;5.45;;
13171;SDS011;6651;53.200;10.432;2023-08-06T07:25:47;8.60;;;5.60;;
13171;SDS011;6651;53.200;10.432;2023-08-06T07:28:13;8.02;;;6.53;;
13171;SDS011;6651;53.200;10.432;2023-08-06T07:30:40;6.10;;;5.47;;
13171;SDS011;6651;53.200;10.432;2023-08-06T07:33:06;6.80;;;5.20;;
13171;SDS011;6651;53.200;10.432;2023-08-06T07:35:32;7.95;;;5.47;;
13171;SDS011;6651;53.200;10.432;2023-08-06T07:37:58;7.72;;;5.95;;
13171;SDS011;6651;53.200;10.432;2023-08-06T07:40:24;7.75;;;5.70;;
13171;SDS011;6651;53.200;10.432;2023-08-06T07:42:50;6.63;;;5.80;;
13171;SDS011;6651;53.200;10.432;2023-08-06T07:45:16;8.95;;;6.53;;
13171;SDS011;6651;53.200;10.432;2023-08-06T07:47:41;10.00;;;6.97;;
13171;SDS011;6651;53.200;10.432;2023-08-06T07:50:08;7.38;;;5.90;;
13171;SDS011;6651;53.200;10.432;2023-08-06T07:52:34;9.50;;;6.25;;
13171;SDS011;6651;53.200;10.432;2023-08-06T07:55:00;9.20;;;6.78;;
13171;SDS011;6651;53.200;10.432;2023-08-06T07:57:29;8.80;;;6.95;;
13171;SDS011;6651;53.200;10.432;2023-08-06T07:59:56;10.27;;;6.90;;
13171;SDS011;6651;53.200;10.432;2023-08-06T08:02:21;7.97;;;6.50;;
13171;SDS011;6651;53.200;10.432;2023-08-06T08:04:47;9.35;;;7.00;;
13171;SDS011;6651;53.200;10.432;2023-08-06T08:07:13;8.52;;;6.18;;
13171;SDS011;6651;53.200;10.432;2023-08-06T08:09:39;10.30;;;7.15;;
13171;SDS011;6651;53.200;10.432;2023-08-06T08:12:04;10.02;;;6.90;;
13171;SDS011;6651;53.200;10.432;2023-08-06T08:14:30;8.10;;;6.70;;
13171;SDS011;6651;53.200;10.432;2023-08-06T08:17:03;7.75;;;6.57;;
13171;SDS011;6651;53.200;10.432;2023-08-06T08:19:30;8.88;;;6.40;;
13171;SDS011;6651;53.200;10.432;2023-08-06T08:21:57;8.18;;;6.40;;
13171;SDS011;6651;53.200;10.432;2023-08-06T08:24:23;7.28;;;5.78;;
13171;SDS011;6651;53.200;10.432;2023-08-06T08:26:50;8.13;;;6.30;;
13171;SDS011;6651;53.200;10.432;2023-08-06T08:29:16;8.57;;;5.60;;
13171;SDS011;6651;53.200;10.432;2023-08-06T08:31:42;7.47;;;6.40;;
13171;SDS011;6651;53.200;10.432;2023-08-06T08:34:08;8.57;;;6.28;;
13171;SDS011;6651;53.200;10.432;2023-08-06T08:36:34;8.27;;;6.20;;
13171;SDS011;6651;53.200;10.432;2023-08-06T08:38:59;8.43;;;6.32;;
13171;SDS011;6651;53.200;10.432;2023-08-06T08:41:27;8.50;;;6.60;;
13171;SDS011;6651;53.200;10.432;2023-08-06T08:43:55;7.55;;;6.18;;
13171;SDS011;6651;53.200;10.432;2023-08-06T08:46:23;8.85;;;6.97;;
13171;SDS011;6651;53.200;10.432;2023-08-06T08:48:51;10.73;;;7.85;;
13171;SDS011;6651;53.200;10.432;2023-08-06T08:51:17;10.88;;;7.80;;
13171;SDS011;6651;53.200;10.432;2023-08-06T08:53:43;10.30;;;7.55;;
13171;SDS011;6651;53.200;10.432;2023-08-06T08:56:10;10.32;;;7.97;;
13171;SDS011;6651;53.200;10.432;2023-08-06T08:58:39;8.52;;;7.55;;
13171;SDS011;6651;53.200;10.432;2023-08-06T09:01:05;13.57;;;8.27;;
13171;SDS011;6651;53.200;10.432;2023-08-06T09:03:32;10.40;;;7.90;;
13171;SDS011;6651;53.200;10.432;2023-08-06T09:05:59;10.68;;;9.07;;
13171;SDS011;6651;53.200;10.432;2023-08-06T09:08:27;9.13;;;8.23;;
13171;SDS011;6651;53.200;10.432;2023-08-06T09:11:00;9.55;;;7.70;;
13171;SDS011;6651;53.200;10.432;2023-08-06T09:13:27;12.02;;;9.20;;
13171;SDS011;6651;53.200;10.432;2023-08-06T09:15:53;9.60;;;8.50;;
13171;SDS011;6651;53.200;10.432;2023-08-06T09:18:26;10.45;;;8.30;;
13171;SDS011;6651;53.200;10.432;2023-08-06T09:20:55;10.35;;;8.90;;
13171;SDS011;6651;53.200;10.432;2023-08-06T09:23:27;11.35;;;8.85;;
13171;SDS011;6651;53.200;10.432;2023-08-06T09:25:58;11.30;;;9.25;;
13171;SDS011;6651;53.200;10.432;2023-08-06T09:28:24;10.52;;;9.48;;
13171;SDS011;6651;53.200;10.432;2023-08-06T09:30:50;9.43;;;8.45;;
13171;SDS011;6651;53.200;10.432;2023-08-06T09:33:18;9.85;;;8.85;;
13171;SDS011;6651;53.200;10.432;2023-08-06T09:35:45;9.95;;;8.90;;
13171;SDS011;6651;53.200;10.432;2023-08-06T09:38:11;11.32;;;8.90;;
13171;SDS011;6651;53.200;10.432;2023-08-06T09:40:37;10.63;;;8.38;;
13171;SDS011;6651;53.200;10.432;2023-08-06T09:43:04;9.60;;;8.35;;
13171;SDS011;6651;53.200;10.432;2023-08-06T09:45:34;11.25;;;8.98;;
13171;SDS011;6651;53.200;10.432;2023-08-06T09:48:07;9.48;;;8.40;;
13171;SDS011;6651;53.200;10.432;2023-08-06T09:50:37;10.02;;;8.60;;
13171;SDS011;6651;53.200;10.432;2023-08-06T09:53:04;9.98;;;8.45;;
13171;SDS011;6651;53.200;10.432;2023-08-06T09:55:31;9.57;;;8.57;;
13171;SDS011;6651;53.200;10.432;2023-08-06T09:57:58;10.20;;;9.15;;
13171;SDS011;6651;53.200;10.432;2023-08-06T10:00:24;10.20;;;8.68;;
13171;SDS011;6651;53.200;10.432;2023-08-06T10:02:51;11.00;;;8.43;;
13171;SDS011;6651;53.200;10.432;2023-08-06T10:05:20;12.98;;;8.30;;
13171;SDS011;6651;53.200;10.432;2023-08-06T10:07:47;13.65;;;8.20;;
13171;SDS011;6651;53.200;10.432;2023-08-06T10:10:16;9.52;;;7.68;;
13171;SDS011;6651;53.200;10.432;2023-08-06T10:12:51;11.48;;;8.43;;
13171;SDS011;6651;53.200;10.432;2023-08-06T10:15:22;11.63;;;8.57;;
13171;SDS011;6651;53.200;10.432;2023-08-06T10:17:56;9.45;;;8.35;;
13171;SDS011;6651;53.200;10.432;2023-08-06T10:20:23;10.57;;;8.68;;
13171;SDS011;6651;53.200;10.432;2023-08-06T10:25:34;8.75;;;7.78;;
13171;SDS011;6651;53.200;10.432;2023-08-06T10:28:11;7.97;;;7.18;;
13171;SDS011;6651;53.200;10.432;2023-08-06T10:30:44;13.40;;;8.40;;
13171;SDS011;6651;53.200;10.432;2023-08-06T10:33:11;10.02;;;7.72;;
13171;SDS011;6651;53.200;10.432;2023-08-06T10:35:37;8.05;;;7.20;;
13171;SDS011;6651;53.200;10.432;2023-08-06T10:43:26;10.82;;;8.27;;
13171;SDS011;6651;53.200;10.432;2023-08-06T10:45:53;9.35;;;7.30;;
13171;SDS011;6651;53.200;10.432;2023-08-06T10:48:33;10.00;;;7.40;;
13171;SDS011;6651;53.200;10.432;2023-08-06T10:51:01;8.30;;;7.05;;
13171;SDS011;6651;53.200;10.432;2023-08-06T10:53:28;9.10;;;7.00;;
13171;SDS011;6651;53.200;10.432;2023-08-06T10:55:54;7.70;;;6.90;;
13171;SDS011;6651;53.200;10.432;2023-08-06T10:58:20;8.43;;;6.75;;
13171;SDS011;6651;53.200;10.432;2023-08-06T11:00:45;8.02;;;6.50;;
13171;SDS011;6651;53.200;10.432;2023-08-06T11:03:11;11.02;;;7.22;;
13171;SDS011;6651;53.200;10.432;2023-08-06T11:05:37;7.90;;;6.20;;
13171;SDS011;6651;53.200;10.432;2023-08-06T11:08:03;8.48;;;6.80;;
13171;SDS011;6651;53.200;10.432;2023-08-06T11:10:29;8.38;;;5.90;;
13171;SDS011;6651;53.200;10.432;2023-08-06T11:12:54;6.93;;;5.63;;
13171;SDS011;6651;53.200;10.432;2023-08-06T11:15:25;7.25;;;5.90;;
13171;SDS011;6651;53.200;10.432;2023-08-06T11:17:51;7.97;;;5.82;;
13171;SDS011;6651;53.200;10.432;2023-08-06T11:20:20;7.55;;;5.70;;
13171;SDS011;6651;53.200;10.432;2023-08-06T11:22:47;6.75;;;5.65;;
13171;SDS011;6651;53.200;10.432;2023-08-06T11:25:13;7.65;;;5.47;;
13171;SDS011;6651;53.200;10.432;2023-08-06T11:27:38;7.07;;;5.50;;
13171;SDS011;6651;53.200;10.432;2023-08-06T11:30:04;7.05;;;5.38;;
13171;SDS011;6651;53.200;10.432;2023-08-06T11:32:30;6.97;;;5.20;;
13171;SDS011;6651;53.200;10.432;2023-08-06T11:34:57;7.30;;;5.50;;
13171;SDS011;6651;53.200;10.432;2023-08-06T11:37:23;5.30;;;4.80;;
13171;SDS011;6651;53.200;10.432;2023-08-06T11:39:50;6.47;;;4.65;;
13171;SDS011;6651;53.200;10.432;2023-08-06T11:42:16;8.60;;;5.00;;
13171;SDS011;6651;53.200;10.432;2023-08-06T11:44:42;6.93;;;4.97;;
13171;SDS011;6651;53.200;10.432;2023-08-06T11:47:11;7.53;;;5.30;;
13171;SDS011;6651;53.200;10.432;2023-08-06T11:52:24;6.85;;;5.25;;
13171;SDS011;6651;53.200;10.432;2023-08-06T11:55:03;6.30;;;4.50;;
13171;SDS011;6651;53.200;10.432;2023-08-06T11:57:35;5.75;;;4.10;;
13171;SDS011;6651;53.200;10.432;2023-08-06T12:00:04;4.70;;;4.00;;
13171;SDS011;6651;53.200;10.432;2023-08-06T12:02:32;5.38;;;3.90;;
13171;SDS011;6651;53.200;10.432;2023-08-06T12:05:03;4.88;;;3.88;;
13171;SDS011;6651;53.200;10.432;2023-08-06T12:07:36;4.57;;;4.10;;
13171;SDS011;6651;53.200;10.432;2023-08-06T12:10:03;3.78;;;3.45;;
13171;SDS011;6651;53.200;10.432;2023-08-06T12:12:30;4.07;;;3.63;;
13171;SDS011;6651;53.200;10.432;2023-08-06T12:14:56;4.55;;;3.60;;
13171;SDS011;6651;53.200;10.432;2023-08-06T12:17:22;5.38;;;3.60;;
13171;SDS011;6651;53.200;10.432;2023-08-06T12:19:49;3.85;;;3.35;;
13171;SDS011;6651;53.200;10.432;2023-08-06T12:22:16;3.45;;;3.15;;
13171;SDS011;6651;53.200;10.432;2023-08-06T12:24:46;3.28;;;2.97;;
13171;SDS011;6651;53.200;10.432;2023-08-06T12:27:12;3.40;;;3.03;;
13171;SDS011;6651;53.200;10.432;2023-08-06T12:29:41;3.10;;;2.80;;
13171;SDS011;6651;53.200;10.432;2023-08-06T12:32:09;3.20;;;2.90;;
13171;SDS011;6651;53.200;10.432;2023-08-06T12:34:35;3.55;;;3.17;;
13171;SDS011;6651;53.200;10.432;2023-08-06T12:37:01;3.10;;;2.80;;
13171;SDS011;6651;53.200;10.432;2023-08-06T12:39:28;4.40;;;3.30;;
13171;SDS011;6651;53.200;10.432;2023-08-06T12:41:54;4.97;;;3.75;;
13171;SDS011;6651;53.200;10.432;2023-08-06T12:44:22;4.38;;;3.97;;
13171;SDS011;6651;53.200;10.432;2023-08-06T12:46:48;4.15;;;3.75;;
13171;SDS011;6651;53.200;10.432;2023-08-06T12:49:14;4.50;;;4.10;;
13171;SDS011;6651;53.200;10.432;2023-08-06T12:51:39;5.53;;;4.13;;
13171;SDS011;6651;53.200;10.432;2023-08-06T12:54:05;5.13;;;4.50;;
13171;SDS011;6651;53.200;10.432;2023-08-06T12:56:31;5.22;;;4.40;;
13171;SDS011;6651;53.200;10.432;2023-08-06T12:58:56;4.43;;;4.03;;
13171;SDS011;6651;53.200;10.432;2023-08-06T13:01:22;4.85;;;4.35;;
13171;SDS011;6651;53.200;10.432;2023-08-06T13:03:48;5.28;;;4.78;;
13171;SDS011;6651;53.200;10.432;2023-08-06T13:06:13;5.55;;;4.38;;
13171;SDS011;6651;53.200;10.432;2023-08-06T13:08:39;5.72;;;4.90;;
13171;SDS011;6651;53.200;10.432;2023-08-06T13:11:04;5.00;;;4.50;;
13171;SDS011;6651;53.200;10.432;2023-08-06T13:13:30;5.50;;;4.38;;
13171;SDS011;6651;53.200;10.432;2023-08-06T13:15:56;5.45;;;4.40;;
13171;SDS011;6651;53.200;10.432;2023-08-06T13:18:21;5.20;;;4.70;;
13171;SDS011;6651;53.200;10.432;2023-08-06T13:20:47;5.07;;;4.55;;
13171;SDS011;6651;53.200;10.432;2023-08-06T13:23:14;6.63;;;5.28;;
13171;SDS011;6651;53.200;10.432;2023-08-06T13:25:41;5.75;;;4.90;;
13171;SDS011;6651;53.200;10.432;2023-08-06T13:28:07;5.47;;;4.90;;
13171;SDS011;6651;53.200;10.432;2023-08-06T13:30:33;5.70;;;4.60;;
13171;SDS011;6651;53.200;10.432;2023-08-06T13:33:00;5.90;;;4.60;;
13171;SDS011;6651;53.200;10.432;2023-08-06T13:35:26;5.05;;;4.40;;
13171;SDS011;6651;53.200;10.432;2023-08-06T13:37:52;5.30;;;4.38;;
13171;SDS011;6651;53.200;10.432;2023-08-06T13:40:19;5.65;;;4.45;;
13171;SDS011;6651;53.200;10.432;2023-08-06T13:42:45;6.65;;;4.47;;
13171;SDS011;6651;53.200;10.432;2023-08-06T13:45:10;6.13;;;5.40;;
13171;SDS011;6651;53.200;10.432;2023-08-06T13:47:36;6.75;;;4.88;;
13171;SDS011;6651;53.200;10.432;2023-08-06T13:50:02;6.75;;;5.30;;
13171;SDS011;6651;53.200;10.432;2023-08-06T13:52:28;7.07;;;5.30;;
13171;SDS011;6651;53.200;10.432;2023-08-06T13:54:54;5.70;;;5.05;;
13171;SDS011;6651;53.200;10.432;2023-08-06T13:57:20;6.55;;;4.95;;
13171;SDS011;6651;53.200;10.432;2023-08-06T13:59:45;5.82;;;4.90;;
13171;SDS011;6651;53.200;10.432;2023-08-06T14:02:11;5.90;;;5.03;;
13171;SDS011;6651;53.200;10.432;2023-08-06T14:04:37;5.75;;;5.25;;
13171;SDS011;6651;53.200;10.432;2023-08-06T14:07:03;6.15;;;5.53;;
13171;SDS011;6651;53.200;10.432;2023-08-06T14:09:29;6.22;;;5.32;;
13171;SDS011;6651;53.200;10.432;2023-08-06T14:11:55;5.80;;;4.90;;
13171;SDS011;6651;53.200;10.432;2023-08-06T14:14:20;5.80;;;5.20;;
13171;SDS011;6651;53.200;10.432;2023-08-06T14:16:51;8.23;;;5.22;;
13171;SDS011;6651;53.200;10.432;2023-08-06T14:19:18;7.82;;;5.40;;
13171;SDS011;6651;53.200;10.432;2023-08-06T14:21:43;6.25;;;5.25;;
13171;SDS011;6651;53.200;10.432;2023-08-06T14:24:09;6.38;;;5.20;;
13171;SDS011;6651;53.200;10.432;2023-08-06T14:26:34;6.10;;;5.50;;
13171;SDS011;6651;53.200;10.432;2023-08-06T14:29:00;7.72;;;6.03;;
13171;SDS011;6651;53.200;10.432;2023-08-06T14:31:26;6.80;;;6.10;;
13171;SDS011;6651;53.200;10.432;2023-08-06T14:33:52;7.05;;;5.78;;
13171;SDS011;6651;53.200;10.432;2023-08-06T14:36:18;8.32;;;6.15;;
13171;SDS011;6651;53.200;10.432;2023-08-06T14:38:44;8.25;;;6.28;;
13171;SDS011;6651;53.200;10.432;2023-08-06T14:41:10;8.50;;;6.07;;
13171;SDS011;6651;53.200;10.432;2023-08-06T14:43:36;8.43;;;5.72;;
13171;SDS011;6651;53.200;10.432;2023-08-06T14:46:02;7.05;;;5.85;;
13171;SDS011;6651;53.200;10.432;2023-08-06T14:48:28;7.22;;;5.68;;
13171;SDS011;6651;53.200;10.432;2023-08-06T14:50:54;8.77;;;5.30;;
13171;SDS011;6651;53.200;10.432;2023-08-06T14:53:20;7.00;;;5.50;;